sensor_id;sensor_type;location;lat;lon;timestamp;P1;durP1;ratioP1;P2;durP2;ratioP2
21661;SDS011;10992;48.170;8.596;2023-04-01T00:00:26;2.33;;;0.55;;
21661;SDS011;10992;48.170;8.596;2023-04-01T00:02:53;1.38;;;0.73;;
21661;SDS011;10992;48.170;8.596;2023-04-01T00:05:20;1.55;;;0.40;;
21661;SDS011;10992;48.170;8.596;2023-04-01T00:07:47;0.68;;;0.40;;
21661;SDS011;10992;48.170;8.596;2023-04-01T00:10:14;4.45;;;0.80;;
21661;SDS011;10992;48.170;8.596;2023-04-01T00:12:41;1.35;;;0.47;;
21661;SDS011;10992;48.170;8.596;2023-04-01T00:15:08;1.55;;;0.52;;
21661;SDS011;10992;48.170;8.596;2023-04-01T00:17:37;2.05;;;0.68;;
21661;SDS011;10992;48.170;8.596;2023-04-01T00:20:05;2.47;;;0.52;;
21661;SDS011;10992;48.170;8.596;2023-04-01T00:22:34;0.30;;;0.30;;
21661;SDS011;10992;48.170;8.596;2023-04-01T00:25:01;0.77;;;0.30;;
21661;SDS011;10992;48.170;8.596;2023-04-01T00:27:28;1.75;;;0.50;;
21661;SDS011;10992;48.170;8.596;2023-04-01T00:29:55;1.55;;;0.22;;
21661;SDS011;10992;48.170;8.596;2023-04-01T00:32:22;0.50;;;0.30;;
21661;SDS011;10992;48.170;8.596;2023-04-01T00:34:50;2.95;;;0.50;;
21661;SDS011;10992;48.170;8.596;2023-04-01T00:37:18;1.58;;;0.30;;
21661;SDS011;10992;48.170;8.596;2023-04-01T00:39:47;0.80;;;0.30;;
21661;SDS011;10992;48.170;8.596;2023-04-01T00:42:14;1.02;;;0.30;;
21661;SDS011;10992;48.170;8.596;2023-04-01T00:44:41;0.43;;;0.30;;
21661;SDS011;10992;48.170;8.596;2023-04-01T00:47:08;0.95;;;0.22;;
21661;SDS011;10992;48.170;8.596;2023-04-01T00:49:37;0.40;;;0.40;;
21661;SDS011;10992;48.170;8.596;2023-04-01T00:52:08;0.20;;;0.20;;
21661;SDS011;10992;48.170;8.596;2023-04-01T00:54:38;0.20;;;0.20;;
21661;SDS011;10992;48.170;8.596;2023-04-01T00:57:10;1.95;;;0.20;;
21661;SDS011;10992;48.170;8.596;2023-04-01T00:59:46;0.65;;;0.40;;
21661;SDS011;10992;48.170;8.596;2023-04-01T01:02:16;0.55;;;0.30;;
21661;SDS011;10992;48.170;8.596;2023-04-01T01:04:43;0.30;;;0.20;;
21661;SDS011;10992;48.170;8.596;2023-04-01T01:12:45;0.85;;;0.32;;
21661;SDS011;10992;48.170;8.596;2023-04-01T01:29:34;1.23;;;0.40;;
21661;SDS011;10992;48.170;8.596;2023-04-01T01:35:26;2.67;;;0.40;;
21661;SDS011;10992;48.170;8.596;2023-04-01T01:38:03;0.77;;;0.32;;
21661;SDS011;10992;48.170;8.596;2023-04-01T01:40:41;2.15;;;0.32;;
21661;SDS011;10992;48.170;8.596;2023-04-01T01:43:10;1.10;;;0.40;;
21661;SDS011;10992;48.170;8.596;2023-04-01T01:45:41;1.30;;;0.45;;
21661;SDS011;10992;48.170;8.596;2023-04-01T01:48:14;1.10;;;0.40;;
21661;SDS011;10992;48.170;8.596;2023-04-01T01:50:43;2.20;;;0.40;;
21661;SDS011;10992;48.170;8.596;2023-04-01T01:53:13;1.30;;;0.40;;
21661;SDS011;10992;48.170;8.596;2023-04-01T01:55:41;1.70;;;0.55;;
21661;SDS011;10992;48.170;8.596;2023-04-01T01:58:30;0.93;;;0.60;;
21661;SDS011;10992;48.170;8.596;2023-04-01T02:01:03;4.22;;;0.75;;
21661;SDS011;10992;48.170;8.596;2023-04-01T02:03:34;0.82;;;0.60;;
21661;SDS011;10992;48.170;8.596;2023-04-01T02:06:04;1.40;;;0.60;;
21661;SDS011;10992;48.170;8.596;2023-04-01T02:08:49;1.60;;;0.45;;
21661;SDS011;10992;48.170;8.596;2023-04-01T02:11:22;2.40;;;0.55;;
21661;SDS011;10992;48.170;8.596;2023-04-01T02:13:58;6.13;;;0.82;;
21661;SDS011;10992;48.170;8.596;2023-04-01T02:19:17;1.95;;;0.43;;
21661;SDS011;10992;48.170;8.596;2023-04-01T02:21:52;2.72;;;0.70;;
21661;SDS011;10992;48.170;8.596;2023-04-01T02:24:23;2.08;;;0.80;;
21661;SDS011;10992;48.170;8.596;2023-04-01T02:26:53;2.92;;;0.40;;
21661;SDS011;10992;48.170;8.596;2023-04-01T02:29:20;3.55;;;0.80;;
21661;SDS011;10992;48.170;8.596;2023-04-01T02:31:49;1.38;;;0.43;;
21661;SDS011;10992;48.170;8.596;2023-04-01T02:34:17;3.15;;;0.70;;
21661;SDS011;10992;48.170;8.596;2023-04-01T02:36:45;4.20;;;1.02;;
21661;SDS011;10992;48.170;8.596;2023-04-01T02:39:16;2.63;;;0.50;;
21661;SDS011;10992;48.170;8.596;2023-04-01T02:41:45;4.13;;;0.73;;
21661;SDS011;10992;48.170;8.596;2023-04-01T02:44:13;2.83;;;0.85;;
21661;SDS011;10992;48.170;8.596;2023-04-01T02:46:42;5.07;;;1.13;;
21661;SDS011;10992;48.170;8.596;2023-04-01T02:49:10;3.13;;;0.70;;
21661;SDS011;10992;48.170;8.596;2023-04-01T02:51:38;3.33;;;0.80;;
21661;SDS011;10992;48.170;8.596;2023-04-01T02:54:05;4.05;;;1.15;;
21661;SDS011;10992;48.170;8.596;2023-04-01T02:56:32;3.03;;;0.68;;
21661;SDS011;10992;48.170;8.596;2023-04-01T02:58:59;2.65;;;1.00;;
21661;SDS011;10992;48.170;8.596;2023-04-01T03:01:26;3.42;;;0.73;;
21661;SDS011;10992;48.170;8.596;2023-04-01T03:03:53;1.90;;;0.80;;
21661;SDS011;10992;48.170;8.596;2023-04-01T03:06:20;3.78;;;1.08;;
21661;SDS011;10992;48.170;8.596;2023-04-01T03:08:47;7.80;;;1.40;;
21661;SDS011;10992;48.170;8.596;2023-04-01T03:11:14;4.88;;;1.35;;
21661;SDS011;10992;48.170;8.596;2023-04-01T03:13:41;11.30;;;2.30;;
21661;SDS011;10992;48.170;8.596;2023-04-01T03:16:09;4.03;;;0.77;;
21661;SDS011;10992;48.170;8.596;2023-04-01T03:18:36;3.90;;;0.93;;
21661;SDS011;10992;48.170;8.596;2023-04-01T03:24:00;2.42;;;1.13;;
21661;SDS011;10992;48.170;8.596;2023-04-01T03:26:28;3.78;;;0.90;;
21661;SDS011;10992;48.170;8.596;2023-04-01T03:28:55;3.10;;;0.82;;
21661;SDS011;10992;48.170;8.596;2023-04-01T03:31:22;2.88;;;0.70;;
21661;SDS011;10992;48.170;8.596;2023-04-01T03:33:53;4.90;;;1.10;;
21661;SDS011;10992;48.170;8.596;2023-04-01T03:36:21;3.17;;;1.35;;
21661;SDS011;10992;48.170;8.596;2023-04-01T03:38:48;2.03;;;1.08;;
21661;SDS011;10992;48.170;8.596;2023-04-01T03:41:21;2.45;;;0.80;;
21661;SDS011;10992;48.170;8.596;2023-04-01T03:43:48;3.47;;;1.00;;
21661;SDS011;10992;48.170;8.596;2023-04-01T03:46:18;1.38;;;0.68;;
21661;SDS011;10992;48.170;8.596;2023-04-01T03:48:46;3.60;;;1.13;;
21661;SDS011;10992;48.170;8.596;2023-04-01T03:51:13;3.33;;;1.00;;
21661;SDS011;10992;48.170;8.596;2023-04-01T03:53:41;3.13;;;0.70;;
21661;SDS011;10992;48.170;8.596;2023-04-01T03:56:08;1.58;;;0.60;;
21661;SDS011;10992;48.170;8.596;2023-04-01T03:58:35;2.50;;;0.60;;
21661;SDS011;10992;48.170;8.596;2023-04-01T04:01:14;2.38;;;0.73;;
21661;SDS011;10992;48.170;8.596;2023-04-01T04:03:44;2.03;;;0.60;;
21661;SDS011;10992;48.170;8.596;2023-04-01T04:06:13;3.33;;;0.63;;
21661;SDS011;10992;48.170;8.596;2023-04-01T04:08:40;1.88;;;0.60;;
21661;SDS011;10992;48.170;8.596;2023-04-01T04:11:07;1.85;;;0.50;;
21661;SDS011;10992;48.170;8.596;2023-04-01T04:13:39;1.85;;;0.52;;
21661;SDS011;10992;48.170;8.596;2023-04-01T04:16:07;2.58;;;0.70;;
21661;SDS011;10992;48.170;8.596;2023-04-01T04:18:41;0.73;;;0.60;;
21661;SDS011;10992;48.170;8.596;2023-04-01T04:21:10;2.70;;;0.45;;
21661;SDS011;10992;48.170;8.596;2023-04-01T04:23:40;0.40;;;0.35;;
21661;SDS011;10992;48.170;8.596;2023-04-01T04:26:08;0.88;;;0.60;;
21661;SDS011;10992;48.170;8.596;2023-04-01T04:28:38;0.55;;;0.40;;
21661;SDS011;10992;48.170;8.596;2023-04-01T04:31:05;1.50;;;0.70;;
21661;SDS011;10992;48.170;8.596;2023-04-01T04:33:34;2.22;;;0.73;;
21661;SDS011;10992;48.170;8.596;2023-04-01T04:36:02;0.77;;;0.40;;
21661;SDS011;10992;48.170;8.596;2023-04-01T04:38:30;1.65;;;0.50;;
21661;SDS011;10992;48.170;8.596;2023-04-01T04:40:58;0.50;;;0.32;;
21661;SDS011;10992;48.170;8.596;2023-04-01T04:43:25;2.60;;;0.57;;
21661;SDS011;10992;48.170;8.596;2023-04-01T04:45:52;1.35;;;0.50;;
21661;SDS011;10992;48.170;8.596;2023-04-01T04:48:19;1.42;;;0.60;;
21661;SDS011;10992;48.170;8.596;2023-04-01T04:50:49;2.40;;;1.15;;
21661;SDS011;10992;48.170;8.596;2023-04-01T04:53:20;2.03;;;0.80;;
21661;SDS011;10992;48.170;8.596;2023-04-01T04:55:47;0.98;;;0.40;;
21661;SDS011;10992;48.170;8.596;2023-04-01T04:58:26;1.88;;;0.50;;
21661;SDS011;10992;48.170;8.596;2023-04-01T05:00:53;1.55;;;0.70;;
21661;SDS011;10992;48.170;8.596;2023-04-01T05:03:26;1.08;;;0.32;;
21661;SDS011;10992;48.170;8.596;2023-04-01T05:05:54;2.25;;;0.60;;
21661;SDS011;10992;48.170;8.596;2023-04-01T05:08:24;1.42;;;0.73;;
21661;SDS011;10992;48.170;8.596;2023-04-01T05:10:51;1.90;;;0.60;;
21661;SDS011;10992;48.170;8.596;2023-04-01T05:13:18;2.17;;;0.55;;
21661;SDS011;10992;48.170;8.596;2023-04-01T05:15:46;1.08;;;0.70;;
21661;SDS011;10992;48.170;8.596;2023-04-01T05:18:13;0.65;;;0.55;;
21661;SDS011;10992;48.170;8.596;2023-04-01T05:20:45;1.80;;;0.60;;
21661;SDS011;10992;48.170;8.596;2023-04-01T05:23:15;2.10;;;0.90;;
21661;SDS011;10992;48.170;8.596;2023-04-01T05:25:43;4.05;;;1.15;;
21661;SDS011;10992;48.170;8.596;2023-04-01T05:28:11;2.80;;;0.75;;
21661;SDS011;10992;48.170;8.596;2023-04-01T05:30:41;0.45;;;0.40;;
21661;SDS011;10992;48.170;8.596;2023-04-01T05:33:20;2.60;;;0.63;;
21661;SDS011;10992;48.170;8.596;2023-04-01T05:35:47;1.23;;;0.60;;
21661;SDS011;10992;48.170;8.596;2023-04-01T05:38:14;1.80;;;0.88;;
21661;SDS011;10992;48.170;8.596;2023-04-01T05:40:41;1.77;;;0.60;;
21661;SDS011;10992;48.170;8.596;2023-04-01T05:43:08;0.57;;;0.38;;
21661;SDS011;10992;48.170;8.596;2023-04-01T05:45:35;1.80;;;1.05;;
21661;SDS011;10992;48.170;8.596;2023-04-01T05:48:11;2.70;;;1.55;;
21661;SDS011;10992;48.170;8.596;2023-04-01T05:50:39;0.90;;;0.77;;
21661;SDS011;10992;48.170;8.596;2023-04-01T05:53:09;1.77;;;0.68;;
21661;SDS011;10992;48.170;8.596;2023-04-01T05:55:38;1.05;;;0.40;;
21661;SDS011;10992;48.170;8.596;2023-04-01T05:58:05;1.73;;;0.68;;
21661;SDS011;10992;48.170;8.596;2023-04-01T06:00:33;1.75;;;0.45;;
21661;SDS011;10992;48.170;8.596;2023-04-01T06:05:52;2.15;;;0.60;;
21661;SDS011;10992;48.170;8.596;2023-04-01T06:08:22;1.85;;;0.73;;
21661;SDS011;10992;48.170;8.596;2023-04-01T06:10:53;1.73;;;0.47;;
21661;SDS011;10992;48.170;8.596;2023-04-01T06:19:44;3.28;;;0.90;;
21661;SDS011;10992;48.170;8.596;2023-04-01T06:24:58;2.15;;;0.70;;
21661;SDS011;10992;48.170;8.596;2023-04-01T06:27:55;1.83;;;0.75;;
21661;SDS011;10992;48.170;8.596;2023-04-01T06:30:37;5.32;;;1.30;;
21661;SDS011;10992;48.170;8.596;2023-04-01T06:36:25;3.72;;;1.05;;
21661;SDS011;10992;48.170;8.596;2023-04-01T06:39:22;3.00;;;0.73;;
21661;SDS011;10992;48.170;8.596;2023-04-01T06:42:41;3.80;;;0.90;;
21661;SDS011;10992;48.170;8.596;2023-04-01T06:46:11;3.50;;;0.88;;
21661;SDS011;10992;48.170;8.596;2023-04-01T06:55:50;3.30;;;1.10;;
21661;SDS011;10992;48.170;8.596;2023-04-01T06:59:02;2.00;;;0.73;;
21661;SDS011;10992;48.170;8.596;2023-04-01T07:01:34;4.88;;;1.00;;
21661;SDS011;10992;48.170;8.596;2023-04-01T07:04:10;1.88;;;0.60;;
21661;SDS011;10992;48.170;8.596;2023-04-01T07:06:57;2.00;;;0.60;;
21661;SDS011;10992;48.170;8.596;2023-04-01T07:09:32;2.08;;;0.50;;
21661;SDS011;10992;48.170;8.596;2023-04-01T07:15:33;3.47;;;0.60;;
21661;SDS011;10992;48.170;8.596;2023-04-01T07:18:10;3.33;;;1.20;;
21661;SDS011;10992;48.170;8.596;2023-04-01T07:20:42;3.97;;;1.17;;
21661;SDS011;10992;48.170;8.596;2023-04-01T07:23:16;2.60;;;0.95;;
21661;SDS011;10992;48.170;8.596;2023-04-01T07:26:22;1.00;;;0.70;;
21661;SDS011;10992;48.170;8.596;2023-04-01T07:29:05;2.90;;;1.00;;
21661;SDS011;10992;48.170;8.596;2023-04-01T07:32:09;3.03;;;1.02;;
21661;SDS011;10992;48.170;8.596;2023-04-01T07:35:07;1.42;;;0.90;;
21661;SDS011;10992;48.170;8.596;2023-04-01T07:40:59;2.33;;;1.02;;
21661;SDS011;10992;48.170;8.596;2023-04-01T07:49:14;0.82;;;0.35;;
21661;SDS011;10992;48.170;8.596;2023-04-01T07:52:11;1.25;;;0.50;;
21661;SDS011;10992;48.170;8.596;2023-04-01T07:58:04;1.25;;;0.50;;
21661;SDS011;10992;48.170;8.596;2023-04-01T08:01:12;3.40;;;0.57;;
21661;SDS011;10992;48.170;8.596;2023-04-01T08:04:20;2.70;;;0.82;;
21661;SDS011;10992;48.170;8.596;2023-04-01T08:09:32;0.98;;;0.50;;
21661;SDS011;10992;48.170;8.596;2023-04-01T08:15:54;1.48;;;0.50;;
21661;SDS011;10992;48.170;8.596;2023-04-01T08:21:42;0.52;;;0.50;;
21661;SDS011;10992;48.170;8.596;2023-04-01T08:24:29;1.33;;;0.45;;
21661;SDS011;10992;48.170;8.596;2023-04-01T08:32:57;1.08;;;0.40;;
21661;SDS011;10992;48.170;8.596;2023-04-01T08:35:31;0.30;;;0.30;;
21661;SDS011;10992;48.170;8.596;2023-04-01T08:38:06;1.20;;;0.43;;
21661;SDS011;10992;48.170;8.596;2023-04-01T08:40:57;0.68;;;0.50;;
21661;SDS011;10992;48.170;8.596;2023-04-01T08:43:51;0.52;;;0.45;;
21661;SDS011;10992;48.170;8.596;2023-04-01T08:55:01;2.58;;;0.73;;
21661;SDS011;10992;48.170;8.596;2023-04-01T09:00:14;2.20;;;1.08;;
21661;SDS011;10992;48.170;8.596;2023-04-01T09:03:35;1.30;;;0.77;;
21661;SDS011;10992;48.170;8.596;2023-04-01T09:06:29;0.47;;;0.40;;
21661;SDS011;10992;48.170;8.596;2023-04-01T09:12:00;1.00;;;;;
21661;SDS011;10992;48.170;8.596;2023-04-01T09:17:37;0.98;;;0.57;;
21661;SDS011;10992;48.170;8.596;2023-04-01T09:23:47;2.70;;;0.60;;
21661;SDS011;10992;48.170;8.596;2023-04-01T09:38:28;1.15;;;0.70;;
21661;SDS011;10992;48.170;8.596;2023-04-01T09:53:00;0.93;;;0.80;;
21661;SDS011;10992;48.170;8.596;2023-04-01T10:02:09;2.45;;;1.50;;
21661;SDS011;10992;48.170;8.596;2023-04-01T10:41:43;0.73;;;0.60;;
21661;SDS011;10992;48.170;8.596;2023-04-01T10:53:35;0.40;;;0.40;;
21661;SDS011;10992;48.170;8.596;2023-04-01T10:59:48;2.05;;;0.70;;
21661;SDS011;10992;48.170;8.596;2023-04-01T11:06:24;2.15;;;0.60;;
21661;SDS011;10992;48.170;8.596;2023-04-01T11:12:14;3.38;;;0.60;;
21661;SDS011;10992;48.170;8.596;2023-04-01T11:23:28;0.85;;;0.70;;
21661;SDS011;10992;48.170;8.596;2023-04-01T11:26:41;0.98;;;0.45;;
21661;SDS011;10992;48.170;8.596;2023-04-01T11:29:48;0.90;;;0.60;;
21661;SDS011;10992;48.170;8.596;2023-04-01T11:41:01;1.20;;;0.63;;
21661;SDS011;10992;48.170;8.596;2023-04-01T11:44:21;2.45;;;0.50;;
21661;SDS011;10992;48.170;8.596;2023-04-01T11:47:30;0.80;;;0.40;;
21661;SDS011;10992;48.170;8.596;2023-04-01T11:53:02;0.32;;;0.30;;
21661;SDS011;10992;48.170;8.596;2023-04-01T11:59:04;0.68;;;0.52;;
21661;SDS011;10992;48.170;8.596;2023-04-01T12:12:51;1.38;;;0.40;;
21661;SDS011;10992;48.170;8.596;2023-04-01T12:18:42;1.30;;;0.70;;
21661;SDS011;10992;48.170;8.596;2023-04-01T12:21:36;0.57;;;0.38;;
21661;SDS011;10992;48.170;8.596;2023-04-01T12:27:18;0.65;;;0.50;;
21661;SDS011;10992;48.170;8.596;2023-04-01T12:41:08;0.95;;;0.70;;
21661;SDS011;10992;48.170;8.596;2023-04-01T12:44:04;2.08;;;0.95;;
21661;SDS011;10992;48.170;8.596;2023-04-01T12:47:26;1.02;;;0.80;;
21661;SDS011;10992;48.170;8.596;2023-04-01T12:49:45;1.35;;;0.55;;
21661;SDS011;10992;48.170;8.596;2023-04-01T12:52:22;0.90;;;0.47;;
21661;SDS011;10992;48.170;8.596;2023-04-01T12:57:48;0.70;;;0.50;;
21661;SDS011;10992;48.170;8.596;2023-04-01T13:06:19;0.63;;;0.50;;
21661;SDS011;10992;48.170;8.596;2023-04-01T13:20:29;2.05;;;0.70;;
21661;SDS011;10992;48.170;8.596;2023-04-01T13:37:08;0.30;;;0.30;;
21661;SDS011;10992;48.170;8.596;2023-04-01T13:43:01;0.47;;;0.30;;
21661;SDS011;10992;48.170;8.596;2023-04-01T13:45:41;2.05;;;0.77;;
21661;SDS011;10992;48.170;8.596;2023-04-01T13:53:35;1.42;;;0.65;;
21661;SDS011;10992;48.170;8.596;2023-04-01T14:01:40;0.80;;;0.60;;
21661;SDS011;10992;48.170;8.596;2023-04-01T14:04:34;1.83;;;0.80;;
21661;SDS011;10992;48.170;8.596;2023-04-01T14:07:32;1.67;;;0.60;;
21661;SDS011;10992;48.170;8.596;2023-04-01T14:10:30;1.92;;;1.13;;
21661;SDS011;10992;48.170;8.596;2023-04-01T14:23:49;1.92;;;1.10;;
21661;SDS011;10992;48.170;8.596;2023-04-01T14:26:41;3.70;;;1.70;;
21661;SDS011;10992;48.170;8.596;2023-04-01T14:40:22;1.13;;;0.60;;
21661;SDS011;10992;48.170;8.596;2023-04-01T14:49:30;1.55;;;0.40;;
21661;SDS011;10992;48.170;8.596;2023-04-01T14:52:04;1.42;;;0.80;;
21661;SDS011;10992;48.170;8.596;2023-04-01T14:54:44;0.55;;;0.52;;
21661;SDS011;10992;48.170;8.596;2023-04-01T14:57:15;1.02;;;0.70;;
21661;SDS011;10992;48.170;8.596;2023-04-01T14:59:54;0.60;;;0.57;;
21661;SDS011;10992;48.170;8.596;2023-04-01T15:08:05;0.65;;;0.40;;
21661;SDS011;10992;48.170;8.596;2023-04-01T15:10:46;3.30;;;0.65;;
21661;SDS011;10992;48.170;8.596;2023-04-01T15:19:12;1.50;;;0.63;;
21661;SDS011;10992;48.170;8.596;2023-04-01T15:30:45;1.30;;;0.68;;
21661;SDS011;10992;48.170;8.596;2023-04-01T15:33:42;1.67;;;0.60;;
21661;SDS011;10992;48.170;8.596;2023-04-01T15:39:13;1.35;;;0.65;;
21661;SDS011;10992;48.170;8.596;2023-04-01T15:55:36;2.95;;;1.45;;
21661;SDS011;10992;48.170;8.596;2023-04-01T16:01:23;2.30;;;1.20;;
21661;SDS011;10992;48.170;8.596;2023-04-01T16:07:10;0.93;;;0.70;;
21661;SDS011;10992;48.170;8.596;2023-04-01T16:09:59;4.90;;;1.40;;
21661;SDS011;10992;48.170;8.596;2023-04-01T16:21:21;1.17;;;0.80;;
21661;SDS011;10992;48.170;8.596;2023-04-01T16:26:44;0.65;;;0.60;;
21661;SDS011;10992;48.170;8.596;2023-04-01T16:29:20;1.02;;;0.50;;
21661;SDS011;10992;48.170;8.596;2023-04-01T16:35:33;1.10;;;0.68;;
21661;SDS011;10992;48.170;8.596;2023-04-01T16:41:01;1.38;;;0.68;;
21661;SDS011;10992;48.170;8.596;2023-04-01T16:43:39;1.08;;;0.60;;
21661;SDS011;10992;48.170;8.596;2023-04-01T16:46:33;1.17;;;0.60;;
21661;SDS011;10992;48.170;8.596;2023-04-01T16:51:40;0.90;;;0.75;;
21661;SDS011;10992;48.170;8.596;2023-04-01T17:02:35;0.63;;;0.60;;
21661;SDS011;10992;48.170;8.596;2023-04-01T17:05:08;0.55;;;0.40;;
21661;SDS011;10992;48.170;8.596;2023-04-01T17:07:43;0.75;;;0.45;;
21661;SDS011;10992;48.170;8.596;2023-04-01T17:13:06;0.93;;;0.50;;
21661;SDS011;10992;48.170;8.596;2023-04-01T17:16:04;0.47;;;0.40;;
21661;SDS011;10992;48.170;8.596;2023-04-01T17:24:09;0.60;;;0.50;;
21661;SDS011;10992;48.170;8.596;2023-04-01T17:32:44;1.58;;;0.73;;
21661;SDS011;10992;48.170;8.596;2023-04-01T17:35:33;0.40;;;0.40;;
21661;SDS011;10992;48.170;8.596;2023-04-01T17:38:10;0.80;;;0.60;;
21661;SDS011;10992;48.170;8.596;2023-04-01T17:40:59;0.60;;;0.43;;
21661;SDS011;10992;48.170;8.596;2023-04-01T17:49:33;1.35;;;0.80;;
21661;SDS011;10992;48.170;8.596;2023-04-01T17:57:52;1.65;;;0.40;;
21661;SDS011;10992;48.170;8.596;2023-04-01T18:00:30;1.23;;;0.60;;
21661;SDS011;10992;48.170;8.596;2023-04-01T18:03:36;1.88;;;0.65;;
21661;SDS011;10992;48.170;8.596;2023-04-01T18:06:14;0.60;;;0.60;;
21661;SDS011;10992;48.170;8.596;2023-04-01T18:08:55;2.40;;;0.65;;
21661;SDS011;10992;48.170;8.596;2023-04-01T18:24:06;1.85;;;0.55;;
21661;SDS011;10992;48.170;8.596;2023-04-01T18:29:47;1.65;;;1.00;;
21661;SDS011;10992;48.170;8.596;2023-04-01T18:32:31;3.33;;;1.63;;
21661;SDS011;10992;48.170;8.596;2023-04-01T18:35:14;1.85;;;1.02;;
21661;SDS011;10992;48.170;8.596;2023-04-01T18:43:36;3.35;;;1.63;;
21661;SDS011;10992;48.170;8.596;2023-04-01T18:49:00;2.83;;;0.85;;
21661;SDS011;10992;48.170;8.596;2023-04-01T18:51:57;1.48;;;0.82;;
21661;SDS011;10992;48.170;8.596;2023-04-01T18:54:30;1.25;;;0.63;;
21661;SDS011;10992;48.170;8.596;2023-04-01T18:57:15;2.17;;;0.60;;
21661;SDS011;10992;48.170;8.596;2023-04-01T18:59:50;0.75;;;0.60;;
21661;SDS011;10992;48.170;8.596;2023-04-01T19:02:43;1.15;;;0.70;;
21661;SDS011;10992;48.170;8.596;2023-04-01T19:05:18;1.45;;;0.60;;
21661;SDS011;10992;48.170;8.596;2023-04-01T19:07:47;1.42;;;0.80;;
21661;SDS011;10992;48.170;8.596;2023-04-01T19:10:40;0.80;;;0.77;;
21661;SDS011;10992;48.170;8.596;2023-04-01T19:13:24;4.07;;;1.10;;
21661;SDS011;10992;48.170;8.596;2023-04-01T19:24:38;1.92;;;0.82;;
21661;SDS011;10992;48.170;8.596;2023-04-01T19:27:23;4.43;;;0.80;;
21661;SDS011;10992;48.170;8.596;2023-04-01T19:38:39;1.48;;;1.00;;
21661;SDS011;10992;48.170;8.596;2023-04-01T19:46:51;1.42;;;1.10;;
21661;SDS011;10992;48.170;8.596;2023-04-01T19:52:12;1.80;;;1.25;;
21661;SDS011;10992;48.170;8.596;2023-04-01T19:55:15;2.65;;;1.45;;
21661;SDS011;10992;48.170;8.596;2023-04-01T19:57:46;3.28;;;1.52;;
21661;SDS011;10992;48.170;8.596;2023-04-01T20:00:28;3.67;;;1.58;;
21661;SDS011;10992;48.170;8.596;2023-04-01T20:03:41;3.05;;;1.58;;
21661;SDS011;10992;48.170;8.596;2023-04-01T20:11:43;3.05;;;1.90;;
21661;SDS011;10992;48.170;8.596;2023-04-01T20:19:21;4.50;;;2.40;;
21661;SDS011;10992;48.170;8.596;2023-04-01T20:22:04;4.07;;;1.98;;
21661;SDS011;10992;48.170;8.596;2023-04-01T20:24:43;3.50;;;2.22;;
21661;SDS011;10992;48.170;8.596;2023-04-01T20:32:49;3.78;;;2.30;;
21661;SDS011;10992;48.170;8.596;2023-04-01T20:46:36;2.47;;;1.95;;
21661;SDS011;10992;48.170;8.596;2023-04-01T20:54:47;1.77;;;1.33;;
21661;SDS011;10992;48.170;8.596;2023-04-01T20:57:56;2.63;;;1.30;;
21661;SDS011;10992;48.170;8.596;2023-04-01T21:08:43;1.58;;;1.45;;
21661;SDS011;10992;48.170;8.596;2023-04-01T21:16:50;1.77;;;1.60;;
21661;SDS011;10992;48.170;8.596;2023-04-01T21:19:58;2.92;;;1.50;;
21661;SDS011;10992;48.170;8.596;2023-04-01T21:31:57;2.28;;;1.67;;
21661;SDS011;10992;48.170;8.596;2023-04-01T21:35:14;3.05;;;1.38;;
21661;SDS011;10992;48.170;8.596;2023-04-01T21:37:44;1.98;;;1.33;;
21661;SDS011;10992;48.170;8.596;2023-04-01T21:45:24;4.97;;;1.60;;
21661;SDS011;10992;48.170;8.596;2023-04-01T21:50:55;2.42;;;1.45;;
21661;SDS011;10992;48.170;8.596;2023-04-01T22:13:31;2.78;;;0.82;;
21661;SDS011;10992;48.170;8.596;2023-04-01T22:19:08;3.63;;;1.23;;
21661;SDS011;10992;48.170;8.596;2023-04-01T22:27:10;2.63;;;1.40;;
21661;SDS011;10992;48.170;8.596;2023-04-01T22:32:36;3.63;;;1.23;;
21661;SDS011;10992;48.170;8.596;2023-04-01T22:35:23;1.45;;;0.98;;
21661;SDS011;10992;48.170;8.596;2023-04-01T22:38:09;1.65;;;1.30;;
21661;SDS011;10992;48.170;8.596;2023-04-01T22:40:42;2.00;;;0.98;;
21661;SDS011;10992;48.170;8.596;2023-04-01T22:49:03;2.33;;;1.05;;
21661;SDS011;10992;48.170;8.596;2023-04-01T22:51:43;2.25;;;1.15;;
21661;SDS011;10992;48.170;8.596;2023-04-01T22:54:19;2.97;;;1.40;;
21661;SDS011;10992;48.170;8.596;2023-04-01T22:57:02;1.58;;;1.20;;
21661;SDS011;10992;48.170;8.596;2023-04-01T23:02:14;2.17;;;1.25;;
21661;SDS011;10992;48.170;8.596;2023-04-01T23:04:56;3.20;;;1.50;;
21661;SDS011;10992;48.170;8.596;2023-04-01T23:10:03;3.60;;;1.52;;
21661;SDS011;10992;48.170;8.596;2023-04-01T23:12:38;1.77;;;1.60;;
21661;SDS011;10992;48.170;8.596;2023-04-01T23:15:10;2.28;;;1.50;;
21661;SDS011;10992;48.170;8.596;2023-04-01T23:35:48;4.38;;;1.48;;
21661;SDS011;10992;48.170;8.596;2023-04-01T23:38:35;3.03;;;1.90;;
21661;SDS011;10992;48.170;8.596;2023-04-01T23:41:07;3.10;;;1.63;;
21661;SDS011;10992;48.170;8.596;2023-04-01T23:43:43;4.47;;;2.10;;
21661;SDS011;10992;48.170;8.596;2023-04-01T23:46:12;3.72;;;2.00;;
21661;SDS011;10992;48.170;8.596;2023-04-01T23:48:40;2.63;;;1.77;;
21661;SDS011;10992;48.170;8.596;2023-04-01T23:51:20;3.63;;;1.80;;
21661;SDS011;10992;48.170;8.596;2023-04-01T23:54:01;3.38;;;1.98;;
21661;SDS011;10992;48.170;8.596;2023-04-01T23:56:44;3.13;;;1.80;;
21661;SDS011;10992;48.170;8.596;2023-04-01T23:59:16;4.00;;;1.70;;
